Tarryall, Colorado
Current Conditions -  °F | °C
As of 3:58 PM on Monday 20 Oct 2014 (Local Time) from KAFF Reporting Station
Clear Clear  
Wind Chill: 66°   Ceiling: Unl
Heat Index: 66°   Visibility: 10mi
Dew Point: 32°   Wind: 21mph
Humidity: 28%   Direction: 150°SSE
Pressure: 30.18"   Gusts: 28mph
Location:  39.1071°N, 105.506°W
Report Text: KAFF 202158Z AUTO 15018G24KT 10SM CLR 19/00 A3018 RMK AO2 SLP175 T01911000
Loading
Personal Weather Stations






























Interactive Weather Map
Tropical Storm Tracking
New forecast layout! Learn more

10-Day Weather Forecast

Advertisements
Track Severe Weather on mobile